sensor_id;sensor_type;location;lat;lon;timestamp;temperature;humidity
56861;DHT22;42744;51.094;3.490;2022-09-30T00:00:01;7.50;99.90
56861;DHT22;42744;51.094;3.490;2022-09-30T00:02:27;7.50;99.90
56861;DHT22;42744;51.094;3.490;2022-09-30T00:04:53;7.40;99.90
56861;DHT22;42744;51.094;3.490;2022-09-30T00:07:18;7.40;99.90
56861;DHT22;42744;51.094;3.490;2022-09-30T00:09:44;7.40;99.90
56861;DHT22;42744;51.094;3.490;2022-09-30T00:12:13;7.50;99.90
56861;DHT22;42744;51.094;3.490;2022-09-30T00:14:38;7.50;99.90
56861;DHT22;42744;51.094;3.490;2022-09-30T00:17:04;7.50;99.90
56861;DHT22;42744;51.094;3.490;2022-09-30T00:19:30;7.50;99.90
56861;DHT22;42744;51.094;3.490;2022-09-30T00:21:56;7.60;99.90
56861;DHT22;42744;51.094;3.490;2022-09-30T00:24:22;7.60;99.90
56861;DHT22;42744;51.094;3.490;2022-09-30T00:26:48;7.60;99.90
56861;DHT22;42744;51.094;3.490;2022-09-30T00:29:14;7.50;99.90
56861;DHT22;42744;51.094;3.490;2022-09-30T00:31:40;7.50;99.90
56861;DHT22;42744;51.094;3.490;2022-09-30T00:34:06;7.40;99.90
56861;DHT22;42744;51.094;3.490;2022-09-30T00:38:58;7.40;99.90
56861;DHT22;42744;51.094;3.490;2022-09-30T00:41:24;7.40;99.90
56861;DHT22;42744;51.094;3.490;2022-09-30T00:43:51;7.40;99.90
56861;DHT22;42744;51.094;3.490;2022-09-30T00:46:34;7.30;99.90
56861;DHT22;42744;51.094;3.490;2022-09-30T00:49:06;7.30;99.90
56861;DHT22;42744;51.094;3.490;2022-09-30T00:51:40;7.30;99.90
56861;DHT22;42744;51.094;3.490;2022-09-30T00:54:11;7.30;99.90
56861;DHT22;42744;51.094;3.490;2022-09-30T00:56:43;7.20;99.90
56861;DHT22;42744;51.094;3.490;2022-09-30T00:59:16;7.10;99.90
56861;DHT22;42744;51.094;3.490;2022-09-30T01:01:43;7.10;99.90
56861;DHT22;42744;51.094;3.490;2022-09-30T01:04:19;7.10;99.90
56861;DHT22;42744;51.094;3.490;2022-09-30T01:06:46;7.10;99.90
56861;DHT22;42744;51.094;3.490;2022-09-30T01:09:13;7.10;99.90
56861;DHT22;42744;51.094;3.490;2022-09-30T01:11:39;7.10;99.90
56861;DHT22;42744;51.094;3.490;2022-09-30T01:14:14;7.10;99.90
56861;DHT22;42744;51.094;3.490;2022-09-30T01:30:35;6.80;99.90
56861;DHT22;42744;51.094;3.490;2022-09-30T01:33:04;6.80;99.90
56861;DHT22;42744;51.094;3.490;2022-09-30T01:35:45;6.80;99.90
56861;DHT22;42744;51.094;3.490;2022-09-30T01:41:34;6.80;99.90
56861;DHT22;42744;51.094;3.490;2022-09-30T01:46:41;6.90;99.90
56861;DHT22;42744;51.094;3.490;2022-09-30T01:49:38;6.80;99.90
56861;DHT22;42744;51.094;3.490;2022-09-30T01:52:30;6.80;99.90
56861;DHT22;42744;51.094;3.490;2022-09-30T02:00:36;6.70;99.90
56861;DHT22;42744;51.094;3.490;2022-09-30T02:03:08;6.70;99.90
56861;DHT22;42744;51.094;3.490;2022-09-30T02:05:53;6.80;99.90
56861;DHT22;42744;51.094;3.490;2022-09-30T02:08:25;6.80;99.90
56861;DHT22;42744;51.094;3.490;2022-09-30T02:11:00;6.70;99.90
56861;DHT22;42744;51.094;3.490;2022-09-30T02:13:32;6.80;99.90
56861;DHT22;42744;51.094;3.490;2022-09-30T02:16:04;6.80;99.90
56861;DHT22;42744;51.094;3.490;2022-09-30T02:18:46;6.70;99.90
56861;DHT22;42744;51.094;3.490;2022-09-30T02:21:16;6.60;99.90
56861;DHT22;42744;51.094;3.490;2022-09-30T02:23:46;6.60;99.90
56861;DHT22;42744;51.094;3.490;2022-09-30T02:26:19;6.60;99.90
56861;DHT22;42744;51.094;3.490;2022-09-30T02:28:53;6.60;99.90
56861;DHT22;42744;51.094;3.490;2022-09-30T02:31:21;6.60;99.90
56861;DHT22;42744;51.094;3.490;2022-09-30T02:33:49;6.70;99.90
56861;DHT22;42744;51.094;3.490;2022-09-30T02:36:28;6.70;99.90
56861;DHT22;42744;51.094;3.490;2022-09-30T02:39:19;6.60;99.90
56861;DHT22;42744;51.094;3.490;2022-09-30T02:41:51;6.50;99.90
56861;DHT22;42744;51.094;3.490;2022-09-30T02:44:19;6.50;99.90
56861;DHT22;42744;51.094;3.490;2022-09-30T02:47:10;6.50;99.90
56861;DHT22;42744;51.094;3.490;2022-09-30T02:50:01;6.50;99.90
56861;DHT22;42744;51.094;3.490;2022-09-30T02:53:06;6.50;99.90
56861;DHT22;42744;51.094;3.490;2022-09-30T02:58:33;6.50;99.90
56861;DHT22;42744;51.094;3.490;2022-09-30T03:01:06;6.50;99.90
56861;DHT22;42744;51.094;3.490;2022-09-30T03:03:38;6.50;99.90
56861;DHT22;42744;51.094;3.490;2022-09-30T03:06:06;6.40;99.90
56861;DHT22;42744;51.094;3.490;2022-09-30T03:08:32;6.40;99.90
56861;DHT22;42744;51.094;3.490;2022-09-30T03:10:58;6.50;99.90
56861;DHT22;42744;51.094;3.490;2022-09-30T03:13:33;6.50;99.90
56861;DHT22;42744;51.094;3.490;2022-09-30T03:22:26;6.40;99.90
56861;DHT22;42744;51.094;3.490;2022-09-30T03:27:50;6.40;99.90
56861;DHT22;42744;51.094;3.490;2022-09-30T03:30:20;6.40;99.90
56861;DHT22;42744;51.094;3.490;2022-09-30T03:33:14;6.40;99.90
56861;DHT22;42744;51.094;3.490;2022-09-30T03:35:55;6.40;99.90
56861;DHT22;42744;51.094;3.490;2022-09-30T03:38:33;6.40;99.90
56861;DHT22;42744;51.094;3.490;2022-09-30T03:41:36;6.40;99.90
56861;DHT22;42744;51.094;3.490;2022-09-30T03:44:22;6.40;99.90
56861;DHT22;42744;51.094;3.490;2022-09-30T03:47:08;6.40;99.90
56861;DHT22;42744;51.094;3.490;2022-09-30T03:49:56;6.40;99.90
56861;DHT22;42744;51.094;3.490;2022-09-30T03:52:26;6.40;99.90
56861;DHT22;42744;51.094;3.490;2022-09-30T03:54:57;6.40;99.90
56861;DHT22;42744;51.094;3.490;2022-09-30T03:57:27;6.40;99.90
56861;DHT22;42744;51.094;3.490;2022-09-30T03:59:55;6.40;99.90
56861;DHT22;42744;51.094;3.490;2022-09-30T04:02:21;6.40;99.90
56861;DHT22;42744;51.094;3.490;2022-09-30T04:04:47;6.30;99.90
56861;DHT22;42744;51.094;3.490;2022-09-30T04:07:13;6.30;99.90
56861;DHT22;42744;51.094;3.490;2022-09-30T04:09:39;6.30;99.90
56861;DHT22;42744;51.094;3.490;2022-09-30T04:12:06;6.30;99.90
56861;DHT22;42744;51.094;3.490;2022-09-30T04:14:33;6.20;99.90
56861;DHT22;42744;51.094;3.490;2022-09-30T04:16:59;6.20;99.90
56861;DHT22;42744;51.094;3.490;2022-09-30T04:19:25;6.20;99.90
56861;DHT22;42744;51.094;3.490;2022-09-30T04:21:52;6.30;99.90
56861;DHT22;42744;51.094;3.490;2022-09-30T04:24:23;6.30;99.90
56861;DHT22;42744;51.094;3.490;2022-09-30T04:26:49;6.30;99.90
56861;DHT22;42744;51.094;3.490;2022-09-30T04:29:15;6.30;99.90
56861;DHT22;42744;51.094;3.490;2022-09-30T04:31:41;6.30;99.90
56861;DHT22;42744;51.094;3.490;2022-09-30T04:34:08;6.30;99.90
56861;DHT22;42744;51.094;3.490;2022-09-30T04:36:37;6.30;99.90
56861;DHT22;42744;51.094;3.490;2022-09-30T04:39:04;6.30;99.90
56861;DHT22;42744;51.094;3.490;2022-09-30T04:41:30;6.30;99.90
56861;DHT22;42744;51.094;3.490;2022-09-30T04:43:57;6.30;99.90
56861;DHT22;42744;51.094;3.490;2022-09-30T04:46:23;6.30;99.90
56861;DHT22;42744;51.094;3.490;2022-09-30T04:48:49;6.30;99.90
56861;DHT22;42744;51.094;3.490;2022-09-30T04:51:17;6.40;99.90
56861;DHT22;42744;51.094;3.490;2022-09-30T04:53:43;6.40;99.90
56861;DHT22;42744;51.094;3.490;2022-09-30T04:56:10;6.40;99.90
56861;DHT22;42744;51.094;3.490;2022-09-30T04:58:36;6.40;99.90
56861;DHT22;42744;51.094;3.490;2022-09-30T05:01:11;6.50;99.90
56861;DHT22;42744;51.094;3.490;2022-09-30T05:03:37;6.50;99.90
56861;DHT22;42744;51.094;3.490;2022-09-30T05:06:04;6.50;99.90
56861;DHT22;42744;51.094;3.490;2022-09-30T05:08:31;6.50;99.90
56861;DHT22;42744;51.094;3.490;2022-09-30T05:11:00;6.50;99.90
56861;DHT22;42744;51.094;3.490;2022-09-30T05:13:33;6.50;99.90
56861;DHT22;42744;51.094;3.490;2022-09-30T05:16:00;6.50;99.90
56861;DHT22;42744;51.094;3.490;2022-09-30T05:18:27;6.60;99.90
56861;DHT22;42744;51.094;3.490;2022-09-30T05:20:55;6.60;99.90
56861;DHT22;42744;51.094;3.490;2022-09-30T05:23:23;6.60;99.90
56861;DHT22;42744;51.094;3.490;2022-09-30T05:25:50;6.60;99.90
56861;DHT22;42744;51.094;3.490;2022-09-30T05:28:16;6.70;99.90
56861;DHT22;42744;51.094;3.490;2022-09-30T05:30:43;6.70;99.90
56861;DHT22;42744;51.094;3.490;2022-09-30T05:33:10;6.70;99.90
56861;DHT22;42744;51.094;3.490;2022-09-30T05:35:38;6.70;99.90
56861;DHT22;42744;51.094;3.490;2022-09-30T05:38:04;6.70;99.90
56861;DHT22;42744;51.094;3.490;2022-09-30T05:40:31;6.60;99.90
56861;DHT22;42744;51.094;3.490;2022-09-30T05:42:57;6.60;99.90
56861;DHT22;42744;51.094;3.490;2022-09-30T05:45:24;6.60;99.90
56861;DHT22;42744;51.094;3.490;2022-09-30T05:47:54;6.60;99.90
56861;DHT22;42744;51.094;3.490;2022-09-30T05:50:22;6.60;99.90
56861;DHT22;42744;51.094;3.490;2022-09-30T05:52:48;6.60;99.90
56861;DHT22;42744;51.094;3.490;2022-09-30T05:55:15;6.50;99.90
56861;DHT22;42744;51.094;3.490;2022-09-30T05:57:41;6.60;99.90
56861;DHT22;42744;51.094;3.490;2022-09-30T06:00:09;6.60;99.90
56861;DHT22;42744;51.094;3.490;2022-09-30T06:02:37;6.60;99.90
56861;DHT22;42744;51.094;3.490;2022-09-30T06:05:04;6.50;99.90
56861;DHT22;42744;51.094;3.490;2022-09-30T06:07:32;6.60;99.90
56861;DHT22;42744;51.094;3.490;2022-09-30T06:09:59;6.60;99.90
56861;DHT22;42744;51.094;3.490;2022-09-30T06:12:25;6.60;99.90
56861;DHT22;42744;51.094;3.490;2022-09-30T06:14:57;6.60;99.90
56861;DHT22;42744;51.094;3.490;2022-09-30T06:17:23;6.70;99.90
56861;DHT22;42744;51.094;3.490;2022-09-30T06:19:49;6.70;99.90
56861;DHT22;42744;51.094;3.490;2022-09-30T06:22:15;6.70;99.90
56861;DHT22;42744;51.094;3.490;2022-09-30T06:24:43;6.80;99.90
56861;DHT22;42744;51.094;3.490;2022-09-30T06:27:09;6.80;99.90
56861;DHT22;42744;51.094;3.490;2022-09-30T06:29:36;6.90;99.90
56861;DHT22;42744;51.094;3.490;2022-09-30T06:32:03;6.90;99.90
56861;DHT22;42744;51.094;3.490;2022-09-30T06:34:29;7.00;99.90
56861;DHT22;42744;51.094;3.490;2022-09-30T06:36:55;7.00;99.90
56861;DHT22;42744;51.094;3.490;2022-09-30T06:39:21;7.00;99.90
56861;DHT22;42744;51.094;3.490;2022-09-30T06:41:47;7.10;99.90
56861;DHT22;42744;51.094;3.490;2022-09-30T06:44:17;7.10;99.90
56861;DHT22;42744;51.094;3.490;2022-09-30T06:46:43;7.20;99.90
56861;DHT22;42744;51.094;3.490;2022-09-30T06:49:09;7.30;99.90
56861;DHT22;42744;51.094;3.490;2022-09-30T06:51:35;7.30;99.90
56861;DHT22;42744;51.094;3.490;2022-09-30T06:54:01;7.30;99.90
56861;DHT22;42744;51.094;3.490;2022-09-30T06:56:28;7.40;99.90
56861;DHT22;42744;51.094;3.490;2022-09-30T06:58:54;7.50;99.90
56861;DHT22;42744;51.094;3.490;2022-09-30T07:01:21;7.70;99.90
56861;DHT22;42744;51.094;3.490;2022-09-30T07:03:49;7.80;99.90
56861;DHT22;42744;51.094;3.490;2022-09-30T07:06:21;7.90;99.90
56861;DHT22;42744;51.094;3.490;2022-09-30T07:08:47;8.10;99.90
56861;DHT22;42744;51.094;3.490;2022-09-30T07:11:13;8.10;99.90
56861;DHT22;42744;51.094;3.490;2022-09-30T07:13:40;8.20;99.90
56861;DHT22;42744;51.094;3.490;2022-09-30T07:16:08;8.40;99.90
56861;DHT22;42744;51.094;3.490;2022-09-30T07:18:37;8.40;99.90
56861;DHT22;42744;51.094;3.490;2022-09-30T07:21:04;8.50;99.90
56861;DHT22;42744;51.094;3.490;2022-09-30T07:23:30;8.60;99.90
56861;DHT22;42744;51.094;3.490;2022-09-30T07:25:59;8.70;99.90
56861;DHT22;42744;51.094;3.490;2022-09-30T07:28:29;8.90;99.90
56861;DHT22;42744;51.094;3.490;2022-09-30T07:30:58;8.90;99.90
56861;DHT22;42744;51.094;3.490;2022-09-30T07:33:25;9.10;99.90
56861;DHT22;42744;51.094;3.490;2022-09-30T07:35:55;9.20;99.90
56861;DHT22;42744;51.094;3.490;2022-09-30T07:38:23;9.30;99.90
56861;DHT22;42744;51.094;3.490;2022-09-30T07:40:58;9.40;99.90
56861;DHT22;42744;51.094;3.490;2022-09-30T07:43:27;9.50;99.90
56861;DHT22;42744;51.094;3.490;2022-09-30T07:46:12;9.60;99.90
56861;DHT22;42744;51.094;3.490;2022-09-30T07:48:41;9.70;99.90
56861;DHT22;42744;51.094;3.490;2022-09-30T07:53:42;9.80;99.90
56861;DHT22;42744;51.094;3.490;2022-09-30T07:56:09;9.90;99.90
56861;DHT22;42744;51.094;3.490;2022-09-30T07:58:35;9.90;99.90
56861;DHT22;42744;51.094;3.490;2022-09-30T08:01:03;10.00;99.90
56861;DHT22;42744;51.094;3.490;2022-09-30T08:03:37;10.00;99.90
56861;DHT22;42744;51.094;3.490;2022-09-30T08:06:17;10.00;99.90
56861;DHT22;42744;51.094;3.490;2022-09-30T08:08:45;10.10;99.90
56861;DHT22;42744;51.094;3.490;2022-09-30T08:11:12;10.20;99.90
56861;DHT22;42744;51.094;3.490;2022-09-30T08:13:39;10.20;99.90
56861;DHT22;42744;51.094;3.490;2022-09-30T08:16:06;10.30;99.90
56861;DHT22;42744;51.094;3.490;2022-09-30T08:18:31;10.30;99.90
56861;DHT22;42744;51.094;3.490;2022-09-30T08:21:06;10.40;99.90
56861;DHT22;42744;51.094;3.490;2022-09-30T08:23:33;10.50;99.90
56861;DHT22;42744;51.094;3.490;2022-09-30T08:26:08;10.60;99.90
56861;DHT22;42744;51.094;3.490;2022-09-30T08:28:35;10.60;99.90
56861;DHT22;42744;51.094;3.490;2022-09-30T08:31:07;10.70;99.90
56861;DHT22;42744;51.094;3.490;2022-09-30T08:33:34;10.70;99.90
56861;DHT22;42744;51.094;3.490;2022-09-30T08:36:05;10.80;99.90
56861;DHT22;42744;51.094;3.490;2022-09-30T08:38:32;10.90;99.90
56861;DHT22;42744;51.094;3.490;2022-09-30T08:49:47;11.30;99.90
56861;DHT22;42744;51.094;3.490;2022-09-30T08:52:27;11.40;99.90
56861;DHT22;42744;51.094;3.490;2022-09-30T08:54:54;11.60;99.90
56861;DHT22;42744;51.094;3.490;2022-09-30T08:57:22;11.70;99.90
56861;DHT22;42744;51.094;3.490;2022-09-30T08:59:58;11.80;99.90
56861;DHT22;42744;51.094;3.490;2022-09-30T09:02:30;11.90;99.90
56861;DHT22;42744;51.094;3.490;2022-09-30T09:04:59;12.00;99.90
56861;DHT22;42744;51.094;3.490;2022-09-30T09:07:54;12.10;99.90
56861;DHT22;42744;51.094;3.490;2022-09-30T09:10:38;12.20;99.90
56861;DHT22;42744;51.094;3.490;2022-09-30T09:16:38;12.50;99.90
56861;DHT22;42744;51.094;3.490;2022-09-30T09:19:09;12.60;99.90
56861;DHT22;42744;51.094;3.490;2022-09-30T09:21:57;12.80;99.90
56861;DHT22;42744;51.094;3.490;2022-09-30T09:24:27;12.90;99.90
56861;DHT22;42744;51.094;3.490;2022-09-30T09:26:56;13.10;99.90
56861;DHT22;42744;51.094;3.490;2022-09-30T09:30:06;13.20;99.90
56861;DHT22;42744;51.094;3.490;2022-09-30T09:32:14;13.30;99.90
56861;DHT22;42744;51.094;3.490;2022-09-30T09:34:42;13.50;99.90
56861;DHT22;42744;51.094;3.490;2022-09-30T09:40:27;13.70;99.90
56861;DHT22;42744;51.094;3.490;2022-09-30T09:43:19;13.90;99.90
56861;DHT22;42744;51.094;3.490;2022-09-30T09:48:17;14.30;99.90
56861;DHT22;42744;51.094;3.490;2022-09-30T09:53:46;14.70;99.90
56861;DHT22;42744;51.094;3.490;2022-09-30T09:56:15;14.90;99.90
56861;DHT22;42744;51.094;3.490;2022-09-30T09:59:15;15.10;99.90
56861;DHT22;42744;51.094;3.490;2022-09-30T10:01:44;15.30;99.90
56861;DHT22;42744;51.094;3.490;2022-09-30T10:04:13;15.50;99.90
56861;DHT22;42744;51.094;3.490;2022-09-30T10:07:01;15.70;99.90
56861;DHT22;42744;51.094;3.490;2022-09-30T10:09:41;15.90;99.90
56861;DHT22;42744;51.094;3.490;2022-09-30T10:14:35;16.20;99.90
56861;DHT22;42744;51.094;3.490;2022-09-30T10:19:53;16.60;99.90
56861;DHT22;42744;51.094;3.490;2022-09-30T10:22:27;16.70;99.90
56861;DHT22;42744;51.094;3.490;2022-09-30T10:25:23;16.80;99.90
56861;DHT22;42744;51.094;3.490;2022-09-30T10:27:54;17.00;99.90
56861;DHT22;42744;51.094;3.490;2022-09-30T10:30:42;17.10;99.90
56861;DHT22;42744;51.094;3.490;2022-09-30T10:33:49;17.30;99.90
56861;DHT22;42744;51.094;3.490;2022-09-30T10:38:37;17.60;99.90
56861;DHT22;42744;51.094;3.490;2022-09-30T10:41:09;17.70;99.90
56861;DHT22;42744;51.094;3.490;2022-09-30T10:43:42;17.90;99.90
56861;DHT22;42744;51.094;3.490;2022-09-30T10:46:09;17.90;99.90
56861;DHT22;42744;51.094;3.490;2022-09-30T10:48:37;18.10;99.90
56861;DHT22;42744;51.094;3.490;2022-09-30T10:51:15;18.20;99.90
56861;DHT22;42744;51.094;3.490;2022-09-30T10:53:46;18.30;99.90
56861;DHT22;42744;51.094;3.490;2022-09-30T10:56:11;18.40;99.90
56861;DHT22;42744;51.094;3.490;2022-09-30T10:58:44;18.50;99.90
56861;DHT22;42744;51.094;3.490;2022-09-30T11:01:33;18.50;99.90
56861;DHT22;42744;51.094;3.490;2022-09-30T11:04:12;18.60;99.90
56861;DHT22;42744;51.094;3.490;2022-09-30T11:06:43;18.80;99.90
56861;DHT22;42744;51.094;3.490;2022-09-30T11:09:21;18.90;99.90
56861;DHT22;42744;51.094;3.490;2022-09-30T11:11:56;19.10;99.90
56861;DHT22;42744;51.094;3.490;2022-09-30T11:14:36;18.90;99.90
56861;DHT22;42744;51.094;3.490;2022-09-30T11:17:28;19.00;99.90
56861;DHT22;42744;51.094;3.490;2022-09-30T11:20:02;18.90;99.90
56861;DHT22;42744;51.094;3.490;2022-09-30T11:22:41;18.80;99.90
56861;DHT22;42744;51.094;3.490;2022-09-30T11:33:59;19.50;99.90
56861;DHT22;42744;51.094;3.490;2022-09-30T11:41:42;19.70;99.90
56861;DHT22;42744;51.094;3.490;2022-09-30T11:44:32;19.80;99.90
56861;DHT22;42744;51.094;3.490;2022-09-30T11:55:46;20.20;99.90
56861;DHT22;42744;51.094;3.490;2022-09-30T11:58:21;19.70;99.90
56861;DHT22;42744;51.094;3.490;2022-09-30T12:00:53;19.50;99.90
56861;DHT22;42744;51.094;3.490;2022-09-30T12:03:32;19.60;99.90
56861;DHT22;42744;51.094;3.490;2022-09-30T12:06:10;19.80;99.90
56861;DHT22;42744;51.094;3.490;2022-09-30T12:08:47;20.10;99.90
56861;DHT22;42744;51.094;3.490;2022-09-30T12:14:14;20.50;99.90
56861;DHT22;42744;51.094;3.490;2022-09-30T12:16:41;20.60;99.90
56861;DHT22;42744;51.094;3.490;2022-09-30T12:21:55;20.70;99.90
56861;DHT22;42744;51.094;3.490;2022-09-30T12:24:36;20.60;99.90
56861;DHT22;42744;51.094;3.490;2022-09-30T12:27:03;20.70;99.60
56861;DHT22;42744;51.094;3.490;2022-09-30T12:29:55;20.50;98.60
56861;DHT22;42744;51.094;3.490;2022-09-30T12:35:45;20.00;99.20
56861;DHT22;42744;51.094;3.490;2022-09-30T12:49:11;19.70;99.80
56861;DHT22;42744;51.094;3.490;2022-09-30T12:51:51;19.50;99.20
56861;DHT22;42744;51.094;3.490;2022-09-30T12:54:25;19.50;99.90
56861;DHT22;42744;51.094;3.490;2022-09-30T12:57:01;19.60;99.80
56861;DHT22;42744;51.094;3.490;2022-09-30T12:59:50;19.60;99.60
56861;DHT22;42744;51.094;3.490;2022-09-30T13:02:34;19.60;99.90
56861;DHT22;42744;51.094;3.490;2022-09-30T13:15:40;19.60;99.20
56861;DHT22;42744;51.094;3.490;2022-09-30T13:23:45;19.60;97.60
56861;DHT22;42744;51.094;3.490;2022-09-30T13:26:39;19.30;99.60
56861;DHT22;42744;51.094;3.490;2022-09-30T13:34:47;18.80;99.80
56861;DHT22;42744;51.094;3.490;2022-09-30T13:37:31;18.80;99.70
56861;DHT22;42744;51.094;3.490;2022-09-30T13:39:59;19.10;99.90
56861;DHT22;42744;51.094;3.490;2022-09-30T13:42:31;19.30;99.90
56861;DHT22;42744;51.094;3.490;2022-09-30T13:45:20;19.10;99.90
56861;DHT22;42744;51.094;3.490;2022-09-30T13:50:30;18.90;99.90
56861;DHT22;42744;51.094;3.490;2022-09-30T13:53:01;19.10;99.90
56861;DHT22;42744;51.094;3.490;2022-09-30T13:55:44;19.30;99.90
56861;DHT22;42744;51.094;3.490;2022-09-30T14:01:01;19.40;99.70
56861;DHT22;42744;51.094;3.490;2022-09-30T14:22:30;18.90;97.90
56861;DHT22;42744;51.094;3.490;2022-09-30T14:24:55;18.90;98.20
56861;DHT22;42744;51.094;3.490;2022-09-30T14:30:19;18.80;97.90
56861;DHT22;42744;51.094;3.490;2022-09-30T14:32:49;18.80;98.50
56861;DHT22;42744;51.094;3.490;2022-09-30T14:35:23;18.70;99.90
56861;DHT22;42744;51.094;3.490;2022-09-30T14:38:20;18.70;99.20
56861;DHT22;42744;51.094;3.490;2022-09-30T14:40:51;18.50;98.30
56861;DHT22;42744;51.094;3.490;2022-09-30T14:43:25;18.40;97.70
56861;DHT22;42744;51.094;3.490;2022-09-30T14:45:55;18.20;98.20
56861;DHT22;42744;51.094;3.490;2022-09-30T14:48:31;18.30;98.00
56861;DHT22;42744;51.094;3.490;2022-09-30T14:51:02;18.30;99.10
56861;DHT22;42744;51.094;3.490;2022-09-30T14:53:35;18.40;97.80
56861;DHT22;42744;51.094;3.490;2022-09-30T14:56:02;18.50;98.10
56861;DHT22;42744;51.094;3.490;2022-09-30T14:58:39;18.30;97.50
56861;DHT22;42744;51.094;3.490;2022-09-30T15:01:09;18.20;98.40
56861;DHT22;42744;51.094;3.490;2022-09-30T15:03:39;18.00;99.70
56861;DHT22;42744;51.094;3.490;2022-09-30T15:06:22;17.80;99.50
56861;DHT22;42744;51.094;3.490;2022-09-30T15:08:51;17.80;99.60
56861;DHT22;42744;51.094;3.490;2022-09-30T15:11:24;17.70;99.90
56861;DHT22;42744;51.094;3.490;2022-09-30T15:14:06;17.70;99.90
56861;DHT22;42744;51.094;3.490;2022-09-30T15:16:33;17.60;99.80
56861;DHT22;42744;51.094;3.490;2022-09-30T15:19:00;17.50;99.50
56861;DHT22;42744;51.094;3.490;2022-09-30T15:21:27;17.50;98.80
56861;DHT22;42744;51.094;3.490;2022-09-30T15:23:57;17.50;99.90
56861;DHT22;42744;51.094;3.490;2022-09-30T15:26:26;17.50;99.90
56861;DHT22;42744;51.094;3.490;2022-09-30T15:28:52;17.40;99.40
56861;DHT22;42744;51.094;3.490;2022-09-30T15:31:23;17.30;99.10
56861;DHT22;42744;51.094;3.490;2022-09-30T15:34:12;17.30;98.80
56861;DHT22;42744;51.094;3.490;2022-09-30T15:36:39;17.20;97.50
56861;DHT22;42744;51.094;3.490;2022-09-30T15:39:17;17.10;98.10
56861;DHT22;42744;51.094;3.490;2022-09-30T15:41:45;17.00;99.30
56861;DHT22;42744;51.094;3.490;2022-09-30T15:44:35;17.00;99.00
56861;DHT22;42744;51.094;3.490;2022-09-30T15:47:04;16.80;99.30
56861;DHT22;42744;51.094;3.490;2022-09-30T15:49:52;16.70;99.70
56861;DHT22;42744;51.094;3.490;2022-09-30T15:52:28;16.60;99.90
56861;DHT22;42744;51.094;3.490;2022-09-30T15:54:56;16.50;99.80
56861;DHT22;42744;51.094;3.490;2022-09-30T15:57:42;16.50;99.80
56861;DHT22;42744;51.094;3.490;2022-09-30T16:00:29;16.40;99.90
56861;DHT22;42744;51.094;3.490;2022-09-30T16:05:46;16.30;99.90
56861;DHT22;42744;51.094;3.490;2022-09-30T16:08:24;16.30;99.80
56861;DHT22;42744;51.094;3.490;2022-09-30T16:10:54;16.20;99.90
56861;DHT22;42744;51.094;3.490;2022-09-30T16:13:27;16.20;99.90
56861;DHT22;42744;51.094;3.490;2022-09-30T16:15:56;16.20;99.90
56861;DHT22;42744;51.094;3.490;2022-09-30T16:18:25;16.20;99.90
56861;DHT22;42744;51.094;3.490;2022-09-30T16:20:57;16.10;99.90
56861;DHT22;42744;51.094;3.490;2022-09-30T16:23:35;16.10;99.90
56861;DHT22;42744;51.094;3.490;2022-09-30T16:26:20;16.00;99.90
56861;DHT22;42744;51.094;3.490;2022-09-30T16:28:50;16.00;99.90
56861;DHT22;42744;51.094;3.490;2022-09-30T16:31:16;16.00;99.90
56861;DHT22;42744;51.094;3.490;2022-09-30T16:33:43;15.90;99.90
56861;DHT22;42744;51.094;3.490;2022-09-30T16:36:10;15.90;99.90
56861;DHT22;42744;51.094;3.490;2022-09-30T16:38:37;15.80;99.90
56861;DHT22;42744;51.094;3.490;2022-09-30T16:41:04;15.80;99.90
56861;DHT22;42744;51.094;3.490;2022-09-30T16:43:30;15.80;99.90
56861;DHT22;42744;51.094;3.490;2022-09-30T16:45:59;15.70;99.90
56861;DHT22;42744;51.094;3.490;2022-09-30T16:48:25;15.70;99.90
56861;DHT22;42744;51.094;3.490;2022-09-30T16:51:14;15.60;99.90
56861;DHT22;42744;51.094;3.490;2022-09-30T16:53:42;15.60;99.90
56861;DHT22;42744;51.094;3.490;2022-09-30T16:56:14;15.50;99.90
56861;DHT22;42744;51.094;3.490;2022-09-30T16:58:41;15.50;99.90
56861;DHT22;42744;51.094;3.490;2022-09-30T17:01:19;15.50;99.90
56861;DHT22;42744;51.094;3.490;2022-09-30T17:03:45;15.40;99.90
56861;DHT22;42744;51.094;3.490;2022-09-30T17:06:13;15.40;99.90
56861;DHT22;42744;51.094;3.490;2022-09-30T17:08:39;15.40;99.90
56861;DHT22;42744;51.094;3.490;2022-09-30T17:11:06;15.30;99.90
56861;DHT22;42744;51.094;3.490;2022-09-30T17:13:32;15.30;99.90
56861;DHT22;42744;51.094;3.490;2022-09-30T17:15:58;15.30;99.90
56861;DHT22;42744;51.094;3.490;2022-09-30T17:18:26;15.20;99.90
56861;DHT22;42744;51.094;3.490;2022-09-30T17:20:53;15.20;99.90
56861;DHT22;42744;51.094;3.490;2022-09-30T17:23:20;15.20;99.90
56861;DHT22;42744;51.094;3.490;2022-09-30T17:25:46;15.10;99.90
56861;DHT22;42744;51.094;3.490;2022-09-30T17:28:13;15.10;99.90
56861;DHT22;42744;51.094;3.490;2022-09-30T17:30:40;15.10;99.90
56861;DHT22;42744;51.094;3.490;2022-09-30T17:33:07;15.00;99.90
56861;DHT22;42744;51.094;3.490;2022-09-30T17:35:37;15.00;99.90
56861;DHT22;42744;51.094;3.490;2022-09-30T17:38:08;15.00;99.90
56861;DHT22;42744;51.094;3.490;2022-09-30T17:40:35;15.00;99.90
56861;DHT22;42744;51.094;3.490;2022-09-30T17:43:20;14.90;99.90
56861;DHT22;42744;51.094;3.490;2022-09-30T17:45:48;14.90;99.90
56861;DHT22;42744;51.094;3.490;2022-09-30T17:48:20;14.90;99.90
56861;DHT22;42744;51.094;3.490;2022-09-30T17:50:47;14.90;99.90
56861;DHT22;42744;51.094;3.490;2022-09-30T17:53:14;14.90;99.90
56861;DHT22;42744;51.094;3.490;2022-09-30T17:55:45;14.90;99.90
56861;DHT22;42744;51.094;3.490;2022-09-30T17:58:13;14.90;99.90
56861;DHT22;42744;51.094;3.490;2022-09-30T18:00:39;14.80;99.90
56861;DHT22;42744;51.094;3.490;2022-09-30T18:03:05;14.90;99.90
56861;DHT22;42744;51.094;3.490;2022-09-30T18:05:33;14.80;99.90
56861;DHT22;42744;51.094;3.490;2022-09-30T18:07:59;14.80;99.90
56861;DHT22;42744;51.094;3.490;2022-09-30T18:10:26;14.80;99.90
56861;DHT22;42744;51.094;3.490;2022-09-30T18:12:53;14.80;99.90
56861;DHT22;42744;51.094;3.490;2022-09-30T18:15:21;14.70;99.90
56861;DHT22;42744;51.094;3.490;2022-09-30T18:17:47;14.70;99.90
56861;DHT22;42744;51.094;3.490;2022-09-30T18:20:13;14.70;99.90
56861;DHT22;42744;51.094;3.490;2022-09-30T18:22:39;14.70;99.90
56861;DHT22;42744;51.094;3.490;2022-09-30T18:25:06;14.70;99.90
56861;DHT22;42744;51.094;3.490;2022-09-30T18:27:57;14.70;99.90
56861;DHT22;42744;51.094;3.490;2022-09-30T18:30:23;14.70;99.90
56861;DHT22;42744;51.094;3.490;2022-09-30T18:32:51;14.70;99.90
56861;DHT22;42744;51.094;3.490;2022-09-30T18:35:19;14.60;99.90
56861;DHT22;42744;51.094;3.490;2022-09-30T18:37:46;14.60;99.90
56861;DHT22;42744;51.094;3.490;2022-09-30T18:40:19;14.60;99.90
56861;DHT22;42744;51.094;3.490;2022-09-30T18:42:46;14.50;99.90
56861;DHT22;42744;51.094;3.490;2022-09-30T18:45:13;14.50;99.90
56861;DHT22;42744;51.094;3.490;2022-09-30T18:47:41;14.50;99.90
56861;DHT22;42744;51.094;3.490;2022-09-30T18:50:08;14.40;99.90